Grand Rapids, MI (49508)

4:40 AM EST on November 24, 2014 (GMT -0500)
Kentwood | Change Station
CLOSE
Current Station
Personal Weather Station
Location: Kentwood, MI
Elevation: 725 ft
Nearby Weather Stations

Elev 725 ft 42.87 °N, 85.63 °W | Updated 10 minutes ago

Rain
Rain
49.6 °F
Feels Like 49 °F
N
3.1
Wind Variable Wind from SW

Today
High -- | Low -- °F
--% Chance of Precip.
Yesterday
High -- | Low -- °F
Precip. -- in
7:45 AM 5:12 PM
Waxing Crescent, 4% visible
Pressure 29.03 in
Visibility 6.0 miles
Clouds Overcast 600 ft
Windchill 49 °F
Dew Point 49 °F
Humidity 99%
Rainfall 0.35 in
Snow Depth Not available.
UV 0 out of 12
Pollen .10 out of 12
Air Quality Not available.
Flu Activity Not available.
METAR KGRR 240853Z AUTO 22010KT 6SM -RA BR OVC006 10/09 A2903 RMK AO2 SLP830 P0003 60020 T01000089 56005

More Conditions Fewer Conditions

Pressure 29.03 in
Visibility 6.0 miles
Clouds Overcast 600 ft
Windchill 49 °F
Dew Point 49 °F
Humidity 99%
Rainfall 0.35 in
Snow Depth Not available.
UV 0 out of 12
Pollen .10 out of 12
Air Quality Not available.
Flu Activity Not available.
METAR KGRR 240853Z AUTO 22010KT 6SM -RA BR OVC006 10/09 A2903 RMK AO2 SLP830 P0003 60020 T01000089 56005

More Conditions Fewer Conditions

10-Day Weather Forecast

Almanac

Astronomy

Nov. 24, 2014 Rise Set
Actual Time
Civil Twilight
Nautical Twilight
Astronomical Twilight
Moon
Length of Visible Light
Length of Day
Tomorrow will be .
, % of the Moon is Illuminated

Today's Extremes

State Highs State Lows

Community

WunderPhotos

Upload Photos

1,773,294 photos uploaded!

WunderBlogs® & News

Nearby

Air Quality

  Air Quality AQ Index Pollutant
Not available.

Snow Depth

Station Depth Elevation

Earthquake Activity

City Distance Mag. Time & Date
Minimum magnitude displayed is 2.5.

Coastal Water Temperatures

Place Temperature

Nearby Weather Stations